sensor_id;sensor_type;location;lat;lon;timestamp;temperature;humidity
77071;SHT30;65997;48.410;-4.570;2022-12-11T00:00:22;5.55;71.95
77071;SHT30;65997;48.410;-4.570;2022-12-11T00:02:48;5.55;72.04
77071;SHT30;65997;48.410;-4.570;2022-12-11T00:05:14;5.53;72.36
77071;SHT30;65997;48.410;-4.570;2022-12-11T00:07:40;5.53;71.84
77071;SHT30;65997;48.410;-4.570;2022-12-11T00:10:06;5.55;71.99
77071;SHT30;65997;48.410;-4.570;2022-12-11T00:12:32;5.55;71.48
77071;SHT30;65997;48.410;-4.570;2022-12-11T00:14:58;5.53;71.45
77071;SHT30;65997;48.410;-4.570;2022-12-11T00:17:23;5.56;71.94
77071;SHT30;65997;48.410;-4.570;2022-12-11T00:19:49;5.57;71.57
77071;SHT30;65997;48.410;-4.570;2022-12-11T00:22:15;5.56;72.01
77071;SHT30;65997;48.410;-4.570;2022-12-11T00:24:40;5.57;71.64
77071;SHT30;65997;48.410;-4.570;2022-12-11T00:27:06;5.59;71.82
77071;SHT30;65997;48.410;-4.570;2022-12-11T00:29:32;5.57;71.59
77071;SHT30;65997;48.410;-4.570;2022-12-11T00:31:58;5.59;71.61
77071;SHT30;65997;48.410;-4.570;2022-12-11T00:34:23;5.59;71.21
77071;SHT30;65997;48.410;-4.570;2022-12-11T00:36:49;5.59;72.23
77071;SHT30;65997;48.410;-4.570;2022-12-11T00:39:15;5.57;70.42
77071;SHT30;65997;48.410;-4.570;2022-12-11T00:41:41;5.59;70.00
77071;SHT30;65997;48.410;-4.570;2022-12-11T00:44:06;5.59;70.35
77071;SHT30;65997;48.410;-4.570;2022-12-11T00:46:32;5.59;70.34
77071;SHT30;65997;48.410;-4.570;2022-12-11T00:48:58;5.62;70.51
77071;SHT30;65997;48.410;-4.570;2022-12-11T00:51:24;5.59;70.59
77071;SHT30;65997;48.410;-4.570;2022-12-11T00:53:50;5.62;70.70
77071;SHT30;65997;48.410;-4.570;2022-12-11T00:56:19;5.62;70.97
77071;SHT30;65997;48.410;-4.570;2022-12-11T00:58:47;5.62;70.96
77071;SHT30;65997;48.410;-4.570;2022-12-11T01:01:20;5.63;71.10
77071;SHT30;65997;48.410;-4.570;2022-12-11T01:03:46;5.63;71.10
77071;SHT30;65997;48.410;-4.570;2022-12-11T01:06:14;5.64;71.35
77071;SHT30;65997;48.410;-4.570;2022-12-11T01:08:41;5.64;71.31
77071;SHT30;65997;48.410;-4.570;2022-12-11T01:11:10;5.62;71.52
77071;SHT30;65997;48.410;-4.570;2022-12-11T01:13:37;5.66;71.50
77071;SHT30;65997;48.410;-4.570;2022-12-11T01:16:23;5.67;71.40
77071;SHT30;65997;48.410;-4.570;2022-12-11T01:18:49;5.66;71.58
77071;SHT30;65997;48.410;-4.570;2022-12-11T01:21:14;5.66;71.80
77071;SHT30;65997;48.410;-4.570;2022-12-11T01:23:40;5.67;71.78
77071;SHT30;65997;48.410;-4.570;2022-12-11T01:26:12;5.69;71.87
77071;SHT30;65997;48.410;-4.570;2022-12-11T01:28:41;5.69;72.01
77071;SHT30;65997;48.410;-4.570;2022-12-11T01:31:17;5.69;71.86
77071;SHT30;65997;48.410;-4.570;2022-12-11T01:33:45;5.69;72.32
77071;SHT30;65997;48.410;-4.570;2022-12-11T01:36:14;5.71;72.15
77071;SHT30;65997;48.410;-4.570;2022-12-11T01:38:41;5.71;72.03
77071;SHT30;65997;48.410;-4.570;2022-12-11T01:41:07;5.71;72.27
77071;SHT30;65997;48.410;-4.570;2022-12-11T01:43:33;5.71;72.24
77071;SHT30;65997;48.410;-4.570;2022-12-11T01:45:59;5.74;72.17
77071;SHT30;65997;48.410;-4.570;2022-12-11T01:48:28;5.73;72.42
77071;SHT30;65997;48.410;-4.570;2022-12-11T01:50:59;5.71;72.26
77071;SHT30;65997;48.410;-4.570;2022-12-11T01:53:33;5.70;72.34
77071;SHT30;65997;48.410;-4.570;2022-12-11T01:56:00;5.73;72.48
77071;SHT30;65997;48.410;-4.570;2022-12-11T01:58:31;5.73;72.52
77071;SHT30;65997;48.410;-4.570;2022-12-11T02:00:58;5.74;72.53
77071;SHT30;65997;48.410;-4.570;2022-12-11T02:03:25;5.74;72.51
77071;SHT30;65997;48.410;-4.570;2022-12-11T02:05:51;5.73;72.63
77071;SHT30;65997;48.410;-4.570;2022-12-11T02:08:17;5.76;72.60
77071;SHT30;65997;48.410;-4.570;2022-12-11T02:11:05;5.73;72.59
77071;SHT30;65997;48.410;-4.570;2022-12-11T02:13:55;5.74;72.79
77071;SHT30;65997;48.410;-4.570;2022-12-11T02:16:31;5.74;72.89
77071;SHT30;65997;48.410;-4.570;2022-12-11T02:19:02;5.74;72.83
77071;SHT30;65997;48.410;-4.570;2022-12-11T02:21:41;5.73;72.84
77071;SHT30;65997;48.410;-4.570;2022-12-11T02:30:21;5.73;72.93
77071;SHT30;65997;48.410;-4.570;2022-12-11T02:32:56;5.74;73.01
77071;SHT30;65997;48.410;-4.570;2022-12-11T02:35:31;5.70;73.06
77071;SHT30;65997;48.410;-4.570;2022-12-11T02:38:28;5.71;72.84
77071;SHT30;65997;48.410;-4.570;2022-12-11T02:41:04;5.69;72.96
77071;SHT30;65997;48.410;-4.570;2022-12-11T02:43:32;5.70;72.98
77071;SHT30;65997;48.410;-4.570;2022-12-11T02:45:59;5.70;72.96
77071;SHT30;65997;48.410;-4.570;2022-12-11T02:48:28;5.69;72.95
77071;SHT30;65997;48.410;-4.570;2022-12-11T02:50:57;5.67;73.14
77071;SHT30;65997;48.410;-4.570;2022-12-11T02:53:28;5.70;73.02
77071;SHT30;65997;48.410;-4.570;2022-12-11T02:56:20;5.66;73.01
77071;SHT30;65997;48.410;-4.570;2022-12-11T02:58:54;5.63;72.82
77071;SHT30;65997;48.410;-4.570;2022-12-11T03:01:21;5.63;72.91
77071;SHT30;65997;48.410;-4.570;2022-12-11T03:03:47;5.62;72.88
77071;SHT30;65997;48.410;-4.570;2022-12-11T03:06:16;5.60;72.83
77071;SHT30;65997;48.410;-4.570;2022-12-11T03:08:45;5.57;72.72
77071;SHT30;65997;48.410;-4.570;2022-12-11T03:11:12;5.56;72.60
77071;SHT30;65997;48.410;-4.570;2022-12-11T03:13:39;5.53;72.69
77071;SHT30;65997;48.410;-4.570;2022-12-11T03:16:33;5.50;72.46
77071;SHT30;65997;48.410;-4.570;2022-12-11T03:19:16;5.49;72.57
77071;SHT30;65997;48.410;-4.570;2022-12-11T03:21:53;5.45;72.54
77071;SHT30;65997;48.410;-4.570;2022-12-11T03:24:33;5.43;72.38
77071;SHT30;65997;48.410;-4.570;2022-12-11T03:27:30;5.38;72.17
77071;SHT30;65997;48.410;-4.570;2022-12-11T03:30:07;5.35;72.27
77071;SHT30;65997;48.410;-4.570;2022-12-11T03:32:42;5.31;72.29
77071;SHT30;65997;48.410;-4.570;2022-12-11T03:35:36;5.25;72.08
77071;SHT30;65997;48.410;-4.570;2022-12-11T03:38:21;5.22;72.09
77071;SHT30;65997;48.410;-4.570;2022-12-11T03:40:52;5.21;72.26
77071;SHT30;65997;48.410;-4.570;2022-12-11T03:43:20;5.16;72.23
77071;SHT30;65997;48.410;-4.570;2022-12-11T03:45:48;5.12;72.38
77071;SHT30;65997;48.410;-4.570;2022-12-11T03:48:16;5.09;72.48
77071;SHT30;65997;48.410;-4.570;2022-12-11T03:50:44;5.09;72.58
77071;SHT30;65997;48.410;-4.570;2022-12-11T03:53:12;5.07;72.44
77071;SHT30;65997;48.410;-4.570;2022-12-11T03:55:38;5.04;72.42
77071;SHT30;65997;48.410;-4.570;2022-12-11T03:58:04;5.01;72.44
77071;SHT30;65997;48.410;-4.570;2022-12-11T04:00:30;4.99;72.41
77071;SHT30;65997;48.410;-4.570;2022-12-11T04:02:56;4.95;72.61
77071;SHT30;65997;48.410;-4.570;2022-12-11T04:05:48;4.92;72.59
77071;SHT30;65997;48.410;-4.570;2022-12-11T04:08:16;4.89;72.57
77071;SHT30;65997;48.410;-4.570;2022-12-11T04:10:43;4.87;72.63
77071;SHT30;65997;48.410;-4.570;2022-12-11T04:13:09;4.85;72.54
77071;SHT30;65997;48.410;-4.570;2022-12-11T04:15:36;4.85;72.65
77071;SHT30;65997;48.410;-4.570;2022-12-11T04:18:03;4.85;72.74
77071;SHT30;65997;48.410;-4.570;2022-12-11T04:20:52;4.84;72.70
77071;SHT30;65997;48.410;-4.570;2022-12-11T04:23:38;4.81;72.74
77071;SHT30;65997;48.410;-4.570;2022-12-11T04:26:25;4.81;72.71
77071;SHT30;65997;48.410;-4.570;2022-12-11T04:28:50;4.77;72.69
77071;SHT30;65997;48.410;-4.570;2022-12-11T04:31:19;4.75;72.90
77071;SHT30;65997;48.410;-4.570;2022-12-11T04:33:45;4.75;72.76
77071;SHT30;65997;48.410;-4.570;2022-12-11T04:36:12;4.73;72.82
77071;SHT30;65997;48.410;-4.570;2022-12-11T04:38:38;4.73;72.62
77071;SHT30;65997;48.410;-4.570;2022-12-11T04:41:08;4.71;72.81
77071;SHT30;65997;48.410;-4.570;2022-12-11T04:43:34;4.68;72.77
77071;SHT30;65997;48.410;-4.570;2022-12-11T04:46:09;4.71;72.79
77071;SHT30;65997;48.410;-4.570;2022-12-11T04:48:35;4.67;72.72
77071;SHT30;65997;48.410;-4.570;2022-12-11T04:51:02;4.67;72.71
77071;SHT30;65997;48.410;-4.570;2022-12-11T04:53:29;4.65;72.76
77071;SHT30;65997;48.410;-4.570;2022-12-11T04:55:55;4.63;72.76
77071;SHT30;65997;48.410;-4.570;2022-12-11T04:58:21;4.61;72.63
77071;SHT30;65997;48.410;-4.570;2022-12-11T05:00:47;4.57;72.61
77071;SHT30;65997;48.410;-4.570;2022-12-11T05:03:13;4.53;72.68
77071;SHT30;65997;48.410;-4.570;2022-12-11T05:05:39;4.56;72.62
77071;SHT30;65997;48.410;-4.570;2022-12-11T05:08:05;4.54;72.61
77071;SHT30;65997;48.410;-4.570;2022-12-11T05:10:31;4.50;72.67
77071;SHT30;65997;48.410;-4.570;2022-12-11T05:12:57;4.49;72.69
77071;SHT30;65997;48.410;-4.570;2022-12-11T05:15:22;4.46;72.73
77071;SHT30;65997;48.410;-4.570;2022-12-11T05:17:48;4.47;72.71
77071;SHT30;65997;48.410;-4.570;2022-12-11T05:20:14;4.44;72.82
77071;SHT30;65997;48.410;-4.570;2022-12-11T05:22:39;4.44;72.77
77071;SHT30;65997;48.410;-4.570;2022-12-11T05:25:06;4.42;72.72
77071;SHT30;65997;48.410;-4.570;2022-12-11T05:27:32;4.39;72.77
77071;SHT30;65997;48.410;-4.570;2022-12-11T05:29:58;4.39;72.69
77071;SHT30;65997;48.410;-4.570;2022-12-11T05:32:24;4.39;72.74
77071;SHT30;65997;48.410;-4.570;2022-12-11T05:34:49;4.36;72.77
77071;SHT30;65997;48.410;-4.570;2022-12-11T05:37:15;4.34;72.76
77071;SHT30;65997;48.410;-4.570;2022-12-11T05:39:41;4.29;72.75
77071;SHT30;65997;48.410;-4.570;2022-12-11T05:42:07;4.32;72.74
77071;SHT30;65997;48.410;-4.570;2022-12-11T05:44:33;4.29;72.85
77071;SHT30;65997;48.410;-4.570;2022-12-11T05:46:58;4.28;72.79
77071;SHT30;65997;48.410;-4.570;2022-12-11T05:49:24;4.26;72.81
77071;SHT30;65997;48.410;-4.570;2022-12-11T05:51:50;4.22;72.85
77071;SHT30;65997;48.410;-4.570;2022-12-11T05:54:16;4.23;72.83
77071;SHT30;65997;48.410;-4.570;2022-12-11T05:56:42;4.20;72.78
77071;SHT30;65997;48.410;-4.570;2022-12-11T05:59:08;4.19;72.78
77071;SHT30;65997;48.410;-4.570;2022-12-11T06:01:36;4.19;72.88
77071;SHT30;65997;48.410;-4.570;2022-12-11T06:04:03;4.16;72.86
77071;SHT30;65997;48.410;-4.570;2022-12-11T06:06:30;4.17;72.80
77071;SHT30;65997;48.410;-4.570;2022-12-11T06:08:57;4.13;72.87
77071;SHT30;65997;48.410;-4.570;2022-12-11T06:11:25;4.12;72.83
77071;SHT30;65997;48.410;-4.570;2022-12-11T06:13:52;4.10;72.68
77071;SHT30;65997;48.410;-4.570;2022-12-11T06:16:19;4.09;72.79
77071;SHT30;65997;48.410;-4.570;2022-12-11T06:18:46;4.07;72.78
77071;SHT30;65997;48.410;-4.570;2022-12-11T06:21:18;4.07;72.75
77071;SHT30;65997;48.410;-4.570;2022-12-11T06:23:46;4.03;72.78
77071;SHT30;65997;48.410;-4.570;2022-12-11T06:26:14;4.02;72.74
77071;SHT30;65997;48.410;-4.570;2022-12-11T06:28:40;4.01;72.80
77071;SHT30;65997;48.410;-4.570;2022-12-11T06:31:06;4.01;72.83
77071;SHT30;65997;48.410;-4.570;2022-12-11T06:33:32;4.01;72.87
77071;SHT30;65997;48.410;-4.570;2022-12-11T06:36:13;3.99;72.85
77071;SHT30;65997;48.410;-4.570;2022-12-11T06:38:39;3.96;72.85
77071;SHT30;65997;48.410;-4.570;2022-12-11T06:41:07;3.96;72.87
77071;SHT30;65997;48.410;-4.570;2022-12-11T06:43:35;3.98;72.91
77071;SHT30;65997;48.410;-4.570;2022-12-11T06:46:21;3.95;72.95
77071;SHT30;65997;48.410;-4.570;2022-12-11T06:48:48;3.95;72.99
77071;SHT30;65997;48.410;-4.570;2022-12-11T06:51:18;3.95;73.20
77071;SHT30;65997;48.410;-4.570;2022-12-11T06:53:51;3.95;73.16
77071;SHT30;65997;48.410;-4.570;2022-12-11T06:56:18;3.98;73.24
77071;SHT30;65997;48.410;-4.570;2022-12-11T06:58:44;3.96;73.19
77071;SHT30;65997;48.410;-4.570;2022-12-11T07:01:19;3.98;73.27
77071;SHT30;65997;48.410;-4.570;2022-12-11T07:03:45;3.96;73.32
77071;SHT30;65997;48.410;-4.570;2022-12-11T07:06:11;3.98;73.42
77071;SHT30;65997;48.410;-4.570;2022-12-11T07:08:37;3.98;73.37
77071;SHT30;65997;48.410;-4.570;2022-12-11T07:11:08;4.02;73.46
77071;SHT30;65997;48.410;-4.570;2022-12-11T07:13:34;4.01;73.28
77071;SHT30;65997;48.410;-4.570;2022-12-11T07:16:01;4.03;73.41
77071;SHT30;65997;48.410;-4.570;2022-12-11T07:18:30;4.05;73.33
77071;SHT30;65997;48.410;-4.570;2022-12-11T07:20:58;4.06;73.29
77071;SHT30;65997;48.410;-4.570;2022-12-11T07:23:27;4.07;73.30
77071;SHT30;65997;48.410;-4.570;2022-12-11T07:25:54;4.12;73.35
77071;SHT30;65997;48.410;-4.570;2022-12-11T07:28:20;4.13;73.33
77071;SHT30;65997;48.410;-4.570;2022-12-11T07:30:46;4.13;73.55
77071;SHT30;65997;48.410;-4.570;2022-12-11T07:33:12;4.13;73.26
77071;SHT30;65997;48.410;-4.570;2022-12-11T07:35:37;4.14;73.59
77071;SHT30;65997;48.410;-4.570;2022-12-11T07:38:03;4.19;73.28
77071;SHT30;65997;48.410;-4.570;2022-12-11T07:40:29;4.17;73.24
77071;SHT30;65997;48.410;-4.570;2022-12-11T07:42:54;4.19;73.20
77071;SHT30;65997;48.410;-4.570;2022-12-11T07:45:20;4.17;73.12
77071;SHT30;65997;48.410;-4.570;2022-12-11T07:47:45;4.22;73.21
77071;SHT30;65997;48.410;-4.570;2022-12-11T07:50:11;4.20;73.55
77071;SHT30;65997;48.410;-4.570;2022-12-11T07:52:37;4.24;73.33
77071;SHT30;65997;48.410;-4.570;2022-12-11T07:55:03;4.24;73.16
77071;SHT30;65997;48.410;-4.570;2022-12-11T07:57:29;4.26;73.17
77071;SHT30;65997;48.410;-4.570;2022-12-11T07:59:54;4.28;73.17
77071;SHT30;65997;48.410;-4.570;2022-12-11T08:02:20;4.30;74.32
77071;SHT30;65997;48.410;-4.570;2022-12-11T08:04:46;4.32;73.62
77071;SHT30;65997;48.410;-4.570;2022-12-11T08:07:12;4.33;74.60
77071;SHT30;65997;48.410;-4.570;2022-12-11T08:09:38;4.34;73.18
77071;SHT30;65997;48.410;-4.570;2022-12-11T08:12:03;4.37;74.41
77071;SHT30;65997;48.410;-4.570;2022-12-11T08:14:29;4.39;74.04
77071;SHT30;65997;48.410;-4.570;2022-12-11T08:16:55;4.39;73.56
77071;SHT30;65997;48.410;-4.570;2022-12-11T08:19:22;4.39;73.05
77071;SHT30;65997;48.410;-4.570;2022-12-11T08:21:48;4.42;73.20
77071;SHT30;65997;48.410;-4.570;2022-12-11T08:24:14;4.43;73.19
77071;SHT30;65997;48.410;-4.570;2022-12-11T08:26:44;4.46;73.94
77071;SHT30;65997;48.410;-4.570;2022-12-11T08:29:10;4.47;74.11
77071;SHT30;65997;48.410;-4.570;2022-12-11T08:31:35;4.50;73.44
77071;SHT30;65997;48.410;-4.570;2022-12-11T08:34:01;4.51;73.32
77071;SHT30;65997;48.410;-4.570;2022-12-11T08:36:27;4.56;74.13
77071;SHT30;65997;48.410;-4.570;2022-12-11T08:38:54;4.58;73.93
77071;SHT30;65997;48.410;-4.570;2022-12-11T08:41:23;4.61;74.01
77071;SHT30;65997;48.410;-4.570;2022-12-11T08:43:51;4.65;73.28
77071;SHT30;65997;48.410;-4.570;2022-12-11T08:46:21;4.68;73.49
77071;SHT30;65997;48.410;-4.570;2022-12-11T08:48:51;4.73;72.82
77071;SHT30;65997;48.410;-4.570;2022-12-11T08:51:20;4.75;72.95
77071;SHT30;65997;48.410;-4.570;2022-12-11T08:53:47;4.80;72.74
77071;SHT30;65997;48.410;-4.570;2022-12-11T08:56:15;4.83;72.60
77071;SHT30;65997;48.410;-4.570;2022-12-11T08:58:42;4.85;72.77
77071;SHT30;65997;48.410;-4.570;2022-12-11T09:01:13;4.91;72.50
77071;SHT30;65997;48.410;-4.570;2022-12-11T09:03:39;4.95;72.33
77071;SHT30;65997;48.410;-4.570;2022-12-11T09:06:07;4.99;72.15
77071;SHT30;65997;48.410;-4.570;2022-12-11T09:08:33;5.05;72.29
77071;SHT30;65997;48.410;-4.570;2022-12-11T09:11:17;5.07;72.06
77071;SHT30;65997;48.410;-4.570;2022-12-11T09:13:44;5.09;72.09
77071;SHT30;65997;48.410;-4.570;2022-12-11T09:16:13;5.15;71.92
77071;SHT30;65997;48.410;-4.570;2022-12-11T09:18:39;5.22;71.90
77071;SHT30;65997;48.410;-4.570;2022-12-11T09:21:08;5.22;71.92
77071;SHT30;65997;48.410;-4.570;2022-12-11T09:23:34;5.24;72.11
77071;SHT30;65997;48.410;-4.570;2022-12-11T09:26:04;5.26;72.15
77071;SHT30;65997;48.410;-4.570;2022-12-11T09:28:31;5.26;72.34
77071;SHT30;65997;48.410;-4.570;2022-12-11T09:30:57;5.29;72.39
77071;SHT30;65997;48.410;-4.570;2022-12-11T09:33:22;5.31;72.43
77071;SHT30;65997;48.410;-4.570;2022-12-11T09:35:58;5.32;72.55
77071;SHT30;65997;48.410;-4.570;2022-12-11T09:41:36;5.38;72.47
77071;SHT30;65997;48.410;-4.570;2022-12-11T09:44:33;5.38;72.35
77071;SHT30;65997;48.410;-4.570;2022-12-11T09:46:59;5.42;72.34
77071;SHT30;65997;48.410;-4.570;2022-12-11T09:49:42;5.42;72.61
77071;SHT30;65997;48.410;-4.570;2022-12-11T09:55:19;5.49;72.62
77071;SHT30;65997;48.410;-4.570;2022-12-11T10:06:59;5.70;72.38
77071;SHT30;65997;48.410;-4.570;2022-12-11T10:12:43;5.86;72.23
77071;SHT30;65997;48.410;-4.570;2022-12-11T10:18:16;6.00;72.16
77071;SHT30;65997;48.410;-4.570;2022-12-11T10:20:46;6.00;72.17
77071;SHT30;65997;48.410;-4.570;2022-12-11T10:23:20;6.03;72.11
77071;SHT30;65997;48.410;-4.570;2022-12-11T10:26:08;6.10;72.72
77071;SHT30;65997;48.410;-4.570;2022-12-11T10:28:35;6.11;72.07
77071;SHT30;65997;48.410;-4.570;2022-12-11T10:34:12;6.21;72.33
77071;SHT30;65997;48.410;-4.570;2022-12-11T10:36:42;6.27;72.22
77071;SHT30;65997;48.410;-4.570;2022-12-11T10:39:13;6.34;72.29
77071;SHT30;65997;48.410;-4.570;2022-12-11T10:41:43;6.37;72.12
77071;SHT30;65997;48.410;-4.570;2022-12-11T10:44:22;6.41;72.57
77071;SHT30;65997;48.410;-4.570;2022-12-11T10:49:42;6.50;71.84
77071;SHT30;65997;48.410;-4.570;2022-12-11T10:55:26;6.56;71.61
77071;SHT30;65997;48.410;-4.570;2022-12-11T10:57:56;6.62;70.93
77071;SHT30;65997;48.410;-4.570;2022-12-11T11:00:35;6.61;70.84
77071;SHT30;65997;48.410;-4.570;2022-12-11T11:05:40;6.65;70.85
77071;SHT30;65997;48.410;-4.570;2022-12-11T11:08:18;6.71;70.16
77071;SHT30;65997;48.410;-4.570;2022-12-11T11:10:59;6.72;69.91
77071;SHT30;65997;48.410;-4.570;2022-12-11T11:13:29;6.75;69.54
77071;SHT30;65997;48.410;-4.570;2022-12-11T11:16:00;6.78;70.28
77071;SHT30;65997;48.410;-4.570;2022-12-11T11:18:28;6.76;69.85
77071;SHT30;65997;48.410;-4.570;2022-12-11T11:20:55;6.78;70.37
77071;SHT30;65997;48.410;-4.570;2022-12-11T11:23:23;6.78;70.25
77071;SHT30;65997;48.410;-4.570;2022-12-11T11:26:01;6.78;70.40
77071;SHT30;65997;48.410;-4.570;2022-12-11T11:28:36;6.83;69.34
77071;SHT30;65997;48.410;-4.570;2022-12-11T11:31:06;6.87;69.36
77071;SHT30;65997;48.410;-4.570;2022-12-11T11:33:34;7.00;69.66
77071;SHT30;65997;48.410;-4.570;2022-12-11T11:36:03;7.07;69.75
77071;SHT30;65997;48.410;-4.570;2022-12-11T11:38:40;7.11;69.63
77071;SHT30;65997;48.410;-4.570;2022-12-11T11:41:23;7.20;69.57
77071;SHT30;65997;48.410;-4.570;2022-12-11T11:43:55;7.32;70.31
77071;SHT30;65997;48.410;-4.570;2022-12-11T11:46:31;7.43;68.53
77071;SHT30;65997;48.410;-4.570;2022-12-11T11:52:11;7.75;69.54
77071;SHT30;65997;48.410;-4.570;2022-12-11T11:55:07;7.91;69.28
77071;SHT30;65997;48.410;-4.570;2022-12-11T11:57:56;8.02;68.83
77071;SHT30;65997;48.410;-4.570;2022-12-11T12:00:26;8.39;68.36
77071;SHT30;65997;48.410;-4.570;2022-12-11T12:05:40;8.61;66.83
77071;SHT30;65997;48.410;-4.570;2022-12-11T12:08:34;8.61;67.70
77071;SHT30;65997;48.410;-4.570;2022-12-11T12:14:12;9.01;66.22
77071;SHT30;65997;48.410;-4.570;2022-12-11T12:25:27;9.94;63.71
77071;SHT30;65997;48.410;-4.570;2022-12-11T12:34:09;10.28;62.94
77071;SHT30;65997;48.410;-4.570;2022-12-11T12:36:55;10.35;62.73
77071;SHT30;65997;48.410;-4.570;2022-12-11T12:39:54;10.38;62.72
77071;SHT30;65997;48.410;-4.570;2022-12-11T12:42:32;10.21;62.66
77071;SHT30;65997;48.410;-4.570;2022-12-11T12:45:17;10.05;62.29
77071;SHT30;65997;48.410;-4.570;2022-12-11T12:47:47;9.95;64.27
77071;SHT30;65997;48.410;-4.570;2022-12-11T12:50:20;9.84;64.11
77071;SHT30;65997;48.410;-4.570;2022-12-11T12:52:48;9.77;64.45
77071;SHT30;65997;48.410;-4.570;2022-12-11T12:55:24;9.74;64.69
77071;SHT30;65997;48.410;-4.570;2022-12-11T12:58:05;9.67;64.77
77071;SHT30;65997;48.410;-4.570;2022-12-11T13:00:39;9.70;65.36
77071;SHT30;65997;48.410;-4.570;2022-12-11T13:03:18;9.86;64.84
77071;SHT30;65997;48.410;-4.570;2022-12-11T13:06:04;9.91;64.83
77071;SHT30;65997;48.410;-4.570;2022-12-11T13:08:45;10.01;64.40
77071;SHT30;65997;48.410;-4.570;2022-12-11T13:11:17;10.15;64.10
77071;SHT30;65997;48.410;-4.570;2022-12-11T13:14:07;10.45;64.00
77071;SHT30;65997;48.410;-4.570;2022-12-11T13:16:44;10.75;62.86
77071;SHT30;65997;48.410;-4.570;2022-12-11T13:19:31;11.00;62.99
77071;SHT30;65997;48.410;-4.570;2022-12-11T13:22:21;11.27;62.06
77071;SHT30;65997;48.410;-4.570;2022-12-11T13:27:38;11.89;60.24
77071;SHT30;65997;48.410;-4.570;2022-12-11T13:30:27;12.12;60.30
77071;SHT30;65997;48.410;-4.570;2022-12-11T13:35:23;12.36;57.18
77071;SHT30;65997;48.410;-4.570;2022-12-11T13:37:52;12.21;59.40
77071;SHT30;65997;48.410;-4.570;2022-12-11T13:40:26;12.06;60.16
77071;SHT30;65997;48.410;-4.570;2022-12-11T13:43:04;11.94;60.47
77071;SHT30;65997;48.410;-4.570;2022-12-11T13:45:45;11.73;60.88
77071;SHT30;65997;48.410;-4.570;2022-12-11T13:51:04;11.71;61.80
77071;SHT30;65997;48.410;-4.570;2022-12-11T13:53:30;11.70;60.78
77071;SHT30;65997;48.410;-4.570;2022-12-11T13:56:05;11.68;61.39
77071;SHT30;65997;48.410;-4.570;2022-12-11T13:58:37;11.66;61.93
77071;SHT30;65997;48.410;-4.570;2022-12-11T14:01:13;11.63;62.31
77071;SHT30;65997;48.410;-4.570;2022-12-11T14:03:46;11.57;62.18
77071;SHT30;65997;48.410;-4.570;2022-12-11T14:06:13;11.56;61.89
77071;SHT30;65997;48.410;-4.570;2022-12-11T14:08:42;11.63;61.95
77071;SHT30;65997;48.410;-4.570;2022-12-11T14:11:20;11.63;61.45
77071;SHT30;65997;48.410;-4.570;2022-12-11T14:13:46;11.57;62.05
77071;SHT30;65997;48.410;-4.570;2022-12-11T14:16:19;11.53;62.45
77071;SHT30;65997;48.410;-4.570;2022-12-11T14:18:48;11.50;61.99
77071;SHT30;65997;48.410;-4.570;2022-12-11T14:21:22;11.41;62.35
77071;SHT30;65997;48.410;-4.570;2022-12-11T14:23:54;11.37;63.02
77071;SHT30;65997;48.410;-4.570;2022-12-11T14:26:26;11.28;63.52
77071;SHT30;65997;48.410;-4.570;2022-12-11T14:28:52;11.23;63.91
77071;SHT30;65997;48.410;-4.570;2022-12-11T14:31:37;11.12;64.79
77071;SHT30;65997;48.410;-4.570;2022-12-11T14:34:12;11.00;64.71
77071;SHT30;65997;48.410;-4.570;2022-12-11T14:36:41;10.91;64.77
77071;SHT30;65997;48.410;-4.570;2022-12-11T14:39:13;10.82;65.18
77071;SHT30;65997;48.410;-4.570;2022-12-11T14:41:46;10.72;65.99
77071;SHT30;65997;48.410;-4.570;2022-12-11T14:44:16;10.61;66.11
77071;SHT30;65997;48.410;-4.570;2022-12-11T14:46:46;10.58;66.76
77071;SHT30;65997;48.410;-4.570;2022-12-11T14:52:12;10.48;67.20
77071;SHT30;65997;48.410;-4.570;2022-12-11T14:54:42;10.45;67.25
77071;SHT30;65997;48.410;-4.570;2022-12-11T14:57:20;10.42;67.36
77071;SHT30;65997;48.410;-4.570;2022-12-11T14:59:48;10.33;67.18
77071;SHT30;65997;48.410;-4.570;2022-12-11T15:02:36;10.17;67.85
77071;SHT30;65997;48.410;-4.570;2022-12-11T15:05:15;10.05;68.32
77071;SHT30;65997;48.410;-4.570;2022-12-11T15:11:03;9.82;68.86
77071;SHT30;65997;48.410;-4.570;2022-12-11T15:13:32;9.69;69.59
77071;SHT30;65997;48.410;-4.570;2022-12-11T15:15:58;9.60;69.67
77071;SHT30;65997;48.410;-4.570;2022-12-11T15:18:46;9.55;70.01
77071;SHT30;65997;48.410;-4.570;2022-12-11T15:21:13;9.50;70.75
77071;SHT30;65997;48.410;-4.570;2022-12-11T15:23:52;9.46;70.40
77071;SHT30;65997;48.410;-4.570;2022-12-11T15:26:32;9.39;70.79
77071;SHT30;65997;48.410;-4.570;2022-12-11T15:29:00;9.38;70.55
77071;SHT30;65997;48.410;-4.570;2022-12-11T15:31:29;9.36;70.97
77071;SHT30;65997;48.410;-4.570;2022-12-11T15:33:55;9.31;71.04
77071;SHT30;65997;48.410;-4.570;2022-12-11T15:36:37;9.31;71.39
77071;SHT30;65997;48.410;-4.570;2022-12-11T15:39:04;9.23;71.61
77071;SHT30;65997;48.410;-4.570;2022-12-11T15:41:33;9.19;71.72
77071;SHT30;65997;48.410;-4.570;2022-12-11T15:44:03;9.16;71.68
77071;SHT30;65997;48.410;-4.570;2022-12-11T15:46:34;9.10;72.04
77071;SHT30;65997;48.410;-4.570;2022-12-11T15:49:00;9.02;72.18
77071;SHT30;65997;48.410;-4.570;2022-12-11T15:51:25;8.95;71.81
77071;SHT30;65997;48.410;-4.570;2022-12-11T15:53:51;8.89;71.81
77071;SHT30;65997;48.410;-4.570;2022-12-11T15:56:17;8.82;72.23
77071;SHT30;65997;48.410;-4.570;2022-12-11T15:58:45;8.78;71.66
77071;SHT30;65997;48.410;-4.570;2022-12-11T16:01:11;8.73;73.12
77071;SHT30;65997;48.410;-4.570;2022-12-11T16:03:37;8.67;73.51
77071;SHT30;65997;48.410;-4.570;2022-12-11T16:06:03;8.64;72.39
77071;SHT30;65997;48.410;-4.570;2022-12-11T16:08:29;8.60;73.06
77071;SHT30;65997;48.410;-4.570;2022-12-11T16:10:55;8.57;73.17
77071;SHT30;65997;48.410;-4.570;2022-12-11T16:13:21;8.53;73.50
77071;SHT30;65997;48.410;-4.570;2022-12-11T16:15:49;8.49;73.86
77071;SHT30;65997;48.410;-4.570;2022-12-11T16:18:21;8.44;73.89
77071;SHT30;65997;48.410;-4.570;2022-12-11T16:20:49;8.41;73.92
77071;SHT30;65997;48.410;-4.570;2022-12-11T16:23:16;8.43;73.84
77071;SHT30;65997;48.410;-4.570;2022-12-11T16:25:43;8.39;73.74
77071;SHT30;65997;48.410;-4.570;2022-12-11T16:28:11;8.36;74.24
77071;SHT30;65997;48.410;-4.570;2022-12-11T16:30:38;8.36;74.19
77071;SHT30;65997;48.410;-4.570;2022-12-11T16:33:06;8.30;74.08
77071;SHT30;65997;48.410;-4.570;2022-12-11T16:35:32;8.29;73.76
77071;SHT30;65997;48.410;-4.570;2022-12-11T16:37:59;8.29;73.46
77071;SHT30;65997;48.410;-4.570;2022-12-11T16:40:24;8.26;74.52
77071;SHT30;65997;48.410;-4.570;2022-12-11T16:42:50;8.22;73.11
77071;SHT30;65997;48.410;-4.570;2022-12-11T16:45:19;8.16;73.30
77071;SHT30;65997;48.410;-4.570;2022-12-11T16:47:45;8.13;72.89
77071;SHT30;65997;48.410;-4.570;2022-12-11T16:50:12;8.12;73.32
77071;SHT30;65997;48.410;-4.570;2022-12-11T16:52:40;8.07;73.39
77071;SHT30;65997;48.410;-4.570;2022-12-11T16:55:07;8.06;72.96
77071;SHT30;65997;48.410;-4.570;2022-12-11T16:57:32;8.02;73.04
77071;SHT30;65997;48.410;-4.570;2022-12-11T16:59:59;7.98;72.97
77071;SHT30;65997;48.410;-4.570;2022-12-11T17:02:25;7.98;72.88
77071;SHT30;65997;48.410;-4.570;2022-12-11T17:04:51;7.95;73.59
77071;SHT30;65997;48.410;-4.570;2022-12-11T17:07:17;7.92;72.93